Time;durP1;ratioP1;P1;durP2;ratioP2;P2;SDS_P1;SDS_P2;PMS_P1;PMS_P2;Temp;Humidity;BMP_temperature;BMP_pressure;BME280_temperature;BME280_humidity;BME280_pressure;Samples;Min_cycle;Max_cycle;Signal;HPM_P1;HPM_P2
2022/02/11 07:58:14;;;;;;;1999.90;999.90;;;4.50;99.90;;;;;;4977614;28;20273;-81
2022/02/11 08:00:40;;;;;;;1999.90;999.90;;;4.40;99.90;;;;;;4978740;28;20656;-82
2022/02/11 08:03:05;;;;;;;1999.90;999.90;;;4.90;99.90;;;;;;4981592;28;20702;-81
2022/02/11 08:05:31;;;;;;;1999.90;999.90;;;4.40;99.90;;;;;;4981965;28;20209;-81
2022/02/11 08:07:56;;;;;;;1999.90;999.90;;;4.40;99.90;;;;;;4982067;28;20170;-82
2022/02/11 08:10:22;;;;;;;1999.90;999.90;;;4.40;99.90;;;;;;4981524;28;20190;-82
2022/02/11 08:12:48;;;;;;;1999.90;999.90;;;4.40;99.90;;;;;;4980342;28;20189;-81
2022/02/11 08:15:13;;;;;;;1999.90;999.90;;;4.50;99.90;;;;;;4980063;28;20281;-82
2022/02/11 08:17:41;;;;;;;1999.90;999.90;;;4.30;99.90;;;;;;4980008;28;20257;-81
2022/02/11 08:20:08;;;;;;;1999.90;999.90;;;4.30;99.90;;;;;;4980396;28;20185;-80
2022/02/11 08:22:36;;;;;;;1999.90;999.90;;;4.30;99.90;;;;;;4980618;28;20175;-80
2022/02/11 08:25:02;;;;;;;1999.90;999.90;;;4.20;99.90;;;;;;4964128;28;20551;-80
2022/02/11 08:27:29;;;;;;;1999.90;999.90;;;4.30;99.90;;;;;;4980932;28;20174;-80
2022/02/11 08:29:55;;;;;;;1999.90;999.90;;;4.30;99.90;;;;;;4987533;28;20174;-81
2022/02/11 08:32:22;;;;;;;1999.90;999.90;;;4.30;99.90;;;;;;4988895;28;20194;-80
2022/02/11 08:34:48;;;;;;;1999.90;999.90;;;4.40;99.90;;;;;;4989113;28;20722;-81
2022/02/11 08:37:14;;;;;;;1999.90;999.90;;;4.50;99.90;;;;;;4991023;28;20227;-82
2022/02/11 08:39:39;;;;;;;1999.90;999.90;;;4.50;99.90;;;;;;4993126;28;20183;-81
2022/02/11 08:42:06;;;;;;;1999.90;999.90;;;4.50;99.90;;;;;;4992732;28;20932;-81
2022/02/11 08:44:34;;;;;;;1999.90;999.90;;;4.50;99.90;;;;;;4992138;28;20185;-81
2022/02/11 08:46:59;;;;;;;1999.90;999.90;;;4.70;99.90;;;;;;4994533;28;20175;-82
2022/02/11 08:49:25;;;;;;;1999.90;999.90;;;4.60;99.90;;;;;;4993687;28;20254;-82
2022/02/11 08:51:51;;;;;;;1999.90;999.90;;;4.60;99.90;;;;;;4994431;28;20183;-80
2022/02/11 08:54:16;;;;;;;1999.90;999.90;;;4.60;99.90;;;;;;4995467;28;20206;-82
2022/02/11 08:56:42;;;;;;;1999.90;999.90;;;4.70;99.90;;;;;;4994533;28;20291;-81
2022/02/11 08:59:08;;;;;;;1999.90;999.90;;;4.70;99.90;;;;;;4995255;28;20177;-81
2022/02/11 09:01:34;;;;;;;1999.90;999.90;;;4.80;99.90;;;;;;4981234;28;20526;-81
2022/02/11 09:06:47;;;;;;;;;;;;;;;;;;;;;
2022/02/11 09:15:46;;;;;;;1999.90;999.90;;;5.10;99.90;;;;;;5341959;22;20490;-78
2022/02/11 09:18:36;;;;;;;1999.90;999.90;;;5.10;99.90;;;;;;5035125;28;20199;-78
2022/02/11 09:21:02;;;;;;;1999.90;999.90;;;5.10;99.90;;;;;;5033542;28;20399;-78
2022/02/11 09:23:53;;;;;;;1999.90;999.90;;;5.50;99.90;;;;;;5032619;28;20192;-77
2022/02/11 09:26:19;;;;;;;1999.90;999.90;;;5.20;99.90;;;;;;5034227;28;20403;-77
2022/02/11 09:28:47;;;;;;;1999.90;999.90;;;5.20;99.90;;;;;;5033456;28;20217;-77
2022/02/11 10:24:00;;;;;;;1999.90;999.90;;;5.20;99.90;;;;;;3040425;22;20500;-79
2022/02/11 10:26:27;;;;;;;1999.90;999.90;;;5.30;99.90;;;;;;5033030;28;20839;-78
2022/02/11 10:28:56;;;;;;;1999.90;999.90;;;5.40;99.90;;;;;;5032984;28;20169;-78
2022/02/11 10:31:29;;;;;;;1999.90;999.90;;;5.50;99.90;;;;;;5032623;28;20486;-78
2022/02/11 10:34:04;;;;;;;1999.90;999.90;;;5.60;99.90;;;;;;5033672;28;20491;-78
2022/02/11 10:36:33;;;;;;;1999.90;999.90;;;5.70;99.90;;;;;;5034714;28;20529;-78
2022/02/11 10:39:03;;;;;;;1999.90;999.90;;;5.80;99.90;;;;;;5032485;28;20172;-78
2022/02/11 10:41:29;;;;;;;1999.90;999.90;;;6.00;99.90;;;;;;5034205;28;20471;-78
2022/02/11 10:44:08;;;;;;;1999.90;999.90;;;6.00;99.90;;;;;;5049188;28;20475;-78
2022/02/11 10:46:40;;;;;;;1999.90;999.90;;;6.00;99.90;;;;;;5033962;28;20403;-78
2022/02/11 10:49:07;;;;;;;1999.90;999.90;;;6.10;99.90;;;;;;5033619;28;20418;-78
2022/02/11 10:51:42;;;;;;;1999.90;999.90;;;6.30;99.90;;;;;;5034760;28;20429;-78
2022/02/11 10:54:27;;;;;;;1999.90;999.90;;;6.30;99.90;;;;;;5048609;28;20450;-78
2022/02/11 10:56:54;;;;;;;1999.90;999.90;;;6.50;99.90;;;;;;5033671;28;20865;-78
2022/02/11 10:59:28;;;;;;;1999.90;999.90;;;6.50;99.90;;;;;;5033128;28;20411;-78
2022/02/11 11:02:01;;;;;;;1999.90;999.90;;;6.70;99.90;;;;;;5033453;28;20406;-79
2022/02/11 11:04:28;;;;;;;1999.90;999.90;;;6.80;99.90;;;;;;5033640;28;20423;-79
2022/02/11 11:06:55;;;;;;;1999.90;999.90;;;6.90;99.90;;;;;;5052799;28;20418;-78
2022/02/11 11:09:22;;;;;;;1999.90;999.90;;;6.80;99.90;;;;;;5053575;28;20429;-79
2022/02/11 11:11:48;;;;;;;1999.90;999.90;;;6.70;99.90;;;;;;5053873;28;20430;-78
2022/02/11 11:14:17;;;;;;;1999.90;999.90;;;6.60;99.90;;;;;;5037354;28;20439;-78
2022/02/11 11:16:45;;;;;;;1999.90;999.90;;;6.50;99.90;;;;;;5038553;28;20446;-77
2022/02/11 11:19:12;;;;;;;1999.90;999.90;;;6.40;99.90;;;;;;5039127;28;20439;-78
2022/02/11 11:21:47;;;;;;;1999.90;999.90;;;6.50;99.90;;;;;;5038971;28;20402;-78
2022/02/11 11:27:22;;;;;;;1999.90;999.90;;;6.90;99.90;;;;;;5115423;22;20481;-78
2022/02/11 11:33:32;;;;;;;1999.90;999.90;;;6.90;99.90;;;;;;4981356;28;21065;-78
2022/02/11 11:36:17;;;;;;;;;;;;;;;;;;;;;
2022/02/11 11:42:27;;;;;;;1999.90;999.90;;;6.60;99.90;;;;;;5036682;28;20979;-78
2022/02/11 11:45:44;;;;;;;1999.90;999.90;;;6.40;99.90;;;;;;5037007;28;20496;-78
2022/02/11 13:45:25;;;;;;;1999.90;999.90;;;9.60;99.90;;;;;;5795970;22;20988;-79
2022/02/11 13:48:08;;;;;;;1999.90;999.90;;;9.00;99.90;;;;;;5032113;28;20418;-78
2022/02/11 13:51:00;;;;;;;1999.90;999.90;;;9.60;99.90;;;;;;5033284;28;20415;-79
2022/02/11 13:53:40;;;;;;;1999.90;999.90;;;9.70;99.90;;;;;;5035630;28;20426;-80
2022/02/11 13:56:12;;;;;;;1999.90;999.90;;;10.20;99.90;;;;;;5035633;28;20402;-79
2022/02/11 13:58:40;;;;;;;1999.90;999.90;;;10.80;99.90;;;;;;5049124;28;20487;-77
2022/02/11 14:01:26;;;;;;;1999.90;999.90;;;11.50;99.90;;;;;;5032431;28;20961;-77
2022/02/11 14:03:52;;;;;;;1999.90;999.90;;;12.10;99.90;;;;;;5032366;28;20460;-77
2022/02/11 14:06:56;;;;;;;1999.90;999.90;;;12.10;99.90;;;;;;5047284;28;20443;-77
2022/02/11 14:09:32;;;;;;;1999.90;999.90;;;10.90;99.90;;;;;;5047244;28;20420;-77
2022/02/11 14:11:58;;;;;;;1999.90;999.90;;;10.00;99.90;;;;;;5032159;28;20406;-77
2022/02/11 14:14:34;;;;;;;1999.90;999.90;;;9.60;99.90;;;;;;5031977;28;20420;-79
2022/02/11 14:17:04;;;;;;;1999.90;999.90;;;9.20;99.90;;;;;;5062406;28;20457;-78
2022/02/11 14:19:30;;;;;;;1999.90;999.90;;;9.50;99.90;;;;;;5061043;28;20484;-79
2022/02/11 14:21:57;;;;;;;1999.90;999.90;;;9.70;99.90;;;;;;5043188;28;20610;-79
2022/02/11 14:28:53;;;;;;;1999.90;999.90;;;9.80;99.90;;;;;;4958002;29;20410;-79
2022/02/11 14:31:34;;;;;;;1999.90;999.90;;;9.40;99.90;;;;;;5003307;28;20432;-78
2022/02/11 14:34:05;;;;;;;1999.90;999.90;;;8.50;99.90;;;;;;5035078;23;20488;-78
2022/02/11 14:36:38;;;;;;;1999.90;999.90;;;8.00;99.90;;;;;;5035725;28;20478;-79
2022/02/11 14:39:07;;;;;;;1999.90;999.90;;;7.70;99.90;;;;;;5030374;28;20393;-77
2022/02/11 14:41:48;;;;;;;1999.90;999.90;;;7.60;99.90;;;;;;5018375;28;20868;-78
2022/02/11 14:44:15;;;;;;;1999.90;999.90;;;7.50;99.90;;;;;;5028626;28;20446;-77
2022/02/11 14:46:40;;;;;;;1999.90;999.90;;;7.30;99.90;;;;;;5033571;28;20421;-76
2022/02/11 14:49:06;;;;;;;1999.90;999.90;;;7.20;99.90;;;;;;5037215;28;20407;-77
2022/02/11 14:51:34;;;;;;;1999.90;999.90;;;8.10;99.90;;;;;;5038987;28;20221;-78
2022/02/11 14:54:03;;;;;;;1999.90;999.90;;;9.10;99.90;;;;;;5034815;28;20281;-77
2022/02/11 14:56:29;;;;;;;1999.90;999.90;;;10.20;99.90;;;;;;5036504;28;20449;-77
2022/02/11 14:58:55;;;;;;;1999.90;999.90;;;11.00;99.90;;;;;;5034487;28;20470;-77
2022/02/11 15:01:20;;;;;;;1999.90;999.90;;;11.50;99.90;;;;;;5036068;28;20429;-78
2022/02/11 15:03:46;;;;;;;1999.90;999.90;;;12.10;99.90;;;;;;5036393;28;20223;-78
2022/02/11 15:06:12;;;;;;;1999.90;999.90;;;12.30;94.50;;;;;;5037435;28;20176;-77
2022/02/11 15:08:37;;;;;;;1999.90;999.90;;;12.40;92.60;;;;;;5036579;28;20167;-77
2022/02/11 15:11:05;;;;;;;1999.90;999.90;;;12.20;93.50;;;;;;5036989;28;20914;-78
2022/02/11 15:13:31;;;;;;;1999.90;999.90;;;12.60;94.30;;;;;;5034623;28;20310;-78
2022/02/11 15:15:57;;;;;;;1999.90;999.90;;;12.80;91.90;;;;;;5036417;28;20430;-77
2022/02/11 15:18:23;;;;;;;1999.90;999.90;;;12.50;90.90;;;;;;5035859;28;20199;-77
2022/02/11 15:20:49;;;;;;;1999.90;999.90;;;12.50;90.40;;;;;;5035448;28;20167;-77
2022/02/11 15:23:14;;;;;;;1999.90;999.90;;;11.60;92.60;;;;;;5035170;28;20799;-77
2022/02/11 15:25:40;;;;;;;1999.90;999.90;;;10.90;96.10;;;;;;5035074;28;20228;-77
2022/02/11 15:28:06;;;;;;;1999.90;999.90;;;10.90;92.10;;;;;;5035266;28;20179;-77
2022/02/11 15:30:33;;;;;;;1999.90;999.90;;;11.10;89.20;;;;;;5034797;28;20183;-77
2022/02/11 15:33:00;;;;;;;1999.90;999.90;;;11.10;86.70;;;;;;5035419;28;20212;-77
2022/02/11 15:35:28;;;;;;;1999.90;999.90;;;11.20;85.90;;;;;;5034986;28;20527;-77
2022/02/11 15:37:55;;;;;;;1999.90;999.90;;;10.80;85.20;;;;;;5035250;28;20492;-76
2022/02/11 15:40:23;;;;;;;1999.90;999.90;;;10.90;90.10;;;;;;5036237;28;20400;-78
2022/02/11 15:42:49;;;;;;;1999.90;999.90;;;11.20;87.90;;;;;;5034864;28;20409;-77
2022/02/11 15:45:15;;;;;;;1999.90;999.90;;;11.20;85.70;;;;;;5035179;28;20406;-77
2022/02/11 15:47:42;;;;;;;1999.90;999.90;;;11.20;91.10;;;;;;5035390;28;20421;-76
2022/02/11 15:50:08;;;;;;;1999.90;999.90;;;11.20;90.50;;;;;;5034276;28;20176;-78
2022/02/11 15:52:34;;;;;;;1999.90;999.90;;;10.70;90.80;;;;;;5034141;28;20419;-76
2022/02/11 15:55:00;;;;;;;1999.90;999.90;;;10.50;92.70;;;;;;5035289;28;20422;-77
2022/02/11 15:57:26;;;;;;;1999.90;999.90;;;10.30;91.30;;;;;;5034359;28;20510;-77
2022/02/11 15:59:51;;;;;;;1999.90;999.90;;;10.20;93.00;;;;;;5035206;28;20204;-78
2022/02/11 16:02:17;;;;;;;1999.90;999.90;;;9.80;90.90;;;;;;5036083;28;20231;-78
2022/02/11 16:04:43;;;;;;;1999.90;999.90;;;9.20;96.50;;;;;;5034533;28;20189;-78
2022/02/11 16:07:08;;;;;;;1999.90;999.90;;;9.10;94.60;;;;;;5035680;28;20175;-78
2022/02/11 16:09:34;;;;;;;1999.90;999.90;;;8.70;95.40;;;;;;5034229;28;20226;-77
2022/02/11 16:12:01;;;;;;;1999.90;999.90;;;8.50;97.90;;;;;;5035436;28;20203;-79
2022/02/11 16:14:27;;;;;;;1999.90;999.90;;;8.40;98.30;;;;;;5038007;28;20195;-79
2022/02/11 16:16:53;;;;;;;1999.90;999.90;;;8.10;99.90;;;;;;5038915;28;20509;-79
2022/02/11 16:19:19;;;;;;;1999.90;999.90;;;8.00;99.50;;;;;;5035720;28;20404;-79
2022/02/11 16:21:45;;;;;;;1999.90;999.90;;;7.80;99.90;;;;;;5037090;28;20410;-78
2022/02/11 16:32:30;;;;;;;1999.90;999.90;;;7.80;99.90;;;;;;4684153;26;20471;-78
2022/02/11 16:50:10;;;;;;;;;;;;;;;;;;;;;
2022/02/11 16:56:41;;;;;;;1999.90;999.90;;;6.60;99.90;;;;;;4996481;28;20405;-78
2022/02/11 17:05:33;;;;;;;1999.90;999.90;;;6.40;99.90;;;;;;5038964;23;20501;-79
2022/02/11 17:09:05;;;;;;;1999.90;999.90;;;6.30;99.90;;;;;;5025960;28;20204;-79
2022/02/11 17:11:36;;;;;;;1999.90;999.90;;;6.20;99.90;;;;;;5034452;28;20411;-79
2022/02/11 17:27:55;;;;;;;1999.90;999.90;;;5.70;99.90;;;;;;5036792;28;20497;-77
2022/02/11 17:30:26;;;;;;;1999.90;999.90;;;6.00;99.90;;;;;;5030226;28;20427;-78
2022/02/11 17:39:56;;;;;;;1999.90;999.90;;;6.00;99.90;;;;;;5012722;28;20419;-78
2022/02/11 17:49:20;;;;;;;1999.90;999.90;;;6.00;99.90;;;;;;5021966;28;20418;-78
2022/02/11 17:51:47;;;;;;;1999.90;999.90;;;6.40;99.90;;;;;;5034497;28;20426;-78
2022/02/11 18:35:23;;;;;;;1999.90;999.90;;;5.90;99.90;;;;;;4734324;23;20498;-77
2022/02/11 18:37:49;;;;;;;1999.90;999.90;;;5.90;99.90;;;;;;5030887;28;20956;-76
2022/02/11 18:40:15;;;;;;;1999.90;999.90;;;5.90;99.90;;;;;;5029946;28;20176;-76
2022/02/11 18:42:41;;;;;;;1999.90;999.90;;;5.80;99.90;;;;;;5021003;28;20161;-77
2022/02/11 18:45:08;;;;;;;1999.90;999.90;;;5.70;99.90;;;;;;5023228;28;20160;-78
2022/02/11 18:47:35;;;;;;;1999.90;999.90;;;5.60;99.90;;;;;;5024665;28;20486;-78
2022/02/11 18:50:01;;;;;;;1999.90;999.90;;;5.60;99.90;;;;;;5031842;28;20433;-77
2022/02/11 18:52:28;;;;;;;1999.90;999.90;;;5.50;99.90;;;;;;5029910;28;20804;-77
2022/02/11 18:54:54;;;;;;;1999.90;999.90;;;5.40;99.90;;;;;;5019082;28;20819;-76
2022/02/11 18:57:20;;;;;;;1999.90;999.90;;;5.40;99.90;;;;;;5029112;28;20458;-77
2022/02/11 19:02:30;;;;;;;1999.90;999.90;;;5.30;99.90;;;;;;5029788;28;20188;-77
2022/02/11 19:04:56;;;;;;;1999.90;999.90;;;5.30;99.90;;;;;;5030661;28;20427;-76
2022/02/11 19:07:21;;;;;;;1999.90;999.90;;;5.30;99.90;;;;;;5033420;28;20204;-77
2022/02/11 19:09:47;;;;;;;1999.90;999.90;;;5.20;99.90;;;;;;5029729;28;20196;-77
2022/02/11 19:12:13;;;;;;;1999.90;999.90;;;5.10;99.90;;;;;;5028836;28;20181;-77
2022/02/11 19:14:39;;;;;;;1999.90;999.90;;;5.00;99.90;;;;;;5012736;28;20201;-78
2022/02/11 19:17:05;;;;;;;1999.90;999.90;;;4.90;99.90;;;;;;5001317;28;20451;-78
2022/02/11 19:19:32;;;;;;;1999.90;999.90;;;4.80;99.90;;;;;;5025316;28;20553;-77
2022/02/11 19:21:58;;;;;;;1999.90;999.90;;;4.80;99.90;;;;;;5031208;28;20487;-76
2022/02/11 19:24:23;;;;;;;1999.90;999.90;;;4.60;99.90;;;;;;5031993;28;20458;-77
2022/02/11 19:26:49;;;;;;;1999.90;999.90;;;4.60;99.90;;;;;;5033974;28;20169;-78
2022/02/11 19:29:15;;;;;;;1999.90;999.90;;;4.60;99.90;;;;;;5034164;28;20199;-78
2022/02/11 19:31:42;;;;;;;1999.90;999.90;;;4.50;99.90;;;;;;5034445;28;20656;-77
2022/02/11 19:39:21;;;;;;;1999.90;999.90;;;4.00;99.90;;;;;;5194857;23;20232;-77
2022/02/11 19:41:48;;;;;;;1999.90;999.90;;;4.00;99.90;;;;;;5013387;28;21005;-77
2022/02/11 19:44:13;;;;;;;1999.90;999.90;;;3.90;99.90;;;;;;5013539;28;20479;-77
2022/02/11 19:46:39;;;;;;;1999.90;999.90;;;3.80;99.90;;;;;;5015483;28;21237;-77
2022/02/11 19:49:05;;;;;;;1999.90;999.90;;;3.80;99.90;;;;;;5015913;28;20188;-78
2022/02/11 19:51:30;;;;;;;1999.90;999.90;;;3.70;99.90;;;;;;5015993;28;20942;-77
2022/02/11 19:53:56;;;;;;;1999.90;999.90;;;3.70;99.90;;;;;;5016079;28;20443;-77
2022/02/11 19:56:21;;;;;;;1999.90;999.90;;;3.60;99.90;;;;;;5013063;28;20208;-77
2022/02/11 19:58:49;;;;;;;1999.90;999.90;;;3.50;99.90;;;;;;5011946;28;20177;-77
2022/02/11 20:01:14;;;;;;;1999.90;999.90;;;3.60;99.90;;;;;;5012513;28;20173;-77
2022/02/11 20:03:40;;;;;;;1999.90;999.90;;;3.60;99.90;;;;;;5009206;28;20260;-77
2022/02/11 20:06:06;;;;;;;1999.90;999.90;;;3.70;99.90;;;;;;5013139;28;20408;-77
2022/02/11 20:08:33;;;;;;;1999.90;999.90;;;3.70;99.90;;;;;;5009624;28;20227;-77
2022/02/11 20:11:00;;;;;;;1999.90;999.90;;;3.70;99.90;;;;;;5013320;28;20177;-77
2022/02/11 20:18:33;;;;;;;1999.90;999.90;;;3.20;99.90;;;;;;5005295;28;20276;-77
2022/02/11 20:21:04;;;;;;;1999.90;999.90;;;3.50;99.90;;;;;;5011321;28;20173;-78
2022/02/11 20:23:30;;;;;;;1999.90;999.90;;;3.30;99.90;;;;;;5012563;28;20185;-77
2022/02/11 20:25:56;;;;;;;1999.90;999.90;;;3.30;99.90;;;;;;5012359;28;20176;-77
2022/02/11 20:32:15;;;;;;;1999.90;999.90;;;3.40;99.90;;;;;;4951184;29;20194;-77
2022/02/11 20:34:41;;;;;;;1999.90;999.90;;;3.20;99.90;;;;;;5032458;23;20232;-78
2022/02/11 20:37:06;;;;;;;1999.90;999.90;;;3.20;99.90;;;;;;5012260;28;20213;-79
2022/02/11 20:39:33;;;;;;;1999.90;999.90;;;3.70;99.90;;;;;;5006970;28;20554;-79
2022/02/11 20:41:59;;;;;;;1999.90;999.90;;;3.20;99.90;;;;;;5002047;28;20176;-78
2022/02/11 20:44:26;;;;;;;1999.90;999.90;;;3.60;99.90;;;;;;5011603;28;20193;-78
2022/02/11 20:46:52;;;;;;;1999.90;999.90;;;3.30;99.90;;;;;;5013273;28;20256;-78
2022/02/11 20:49:18;;;;;;;1999.90;999.90;;;3.40;99.90;;;;;;5013560;28;20177;-78
2022/02/11 20:51:44;;;;;;;1999.90;999.90;;;3.40;99.90;;;;;;5013976;28;20611;-79
2022/02/11 20:54:11;;;;;;;1999.90;999.90;;;3.40;99.90;;;;;;5012138;28;20197;-78
2022/02/11 20:56:37;;;;;;;1999.90;999.90;;;3.40;99.90;;;;;;5012931;28;20165;-78
2022/02/11 20:59:03;;;;;;;1999.90;999.90;;;3.40;99.90;;;;;;5013236;28;20168;-77
2022/02/11 21:01:44;;;;;;;1999.90;999.90;;;3.40;99.90;;;;;;5012441;28;20412;-78
2022/02/11 21:04:10;;;;;;;1999.90;999.90;;;3.40;99.90;;;;;;5013414;28;20220;-77
2022/02/11 21:09:22;;;;;;;1999.90;999.90;;;3.30;99.90;;;;;;5013967;28;20235;-78
2022/02/11 21:11:49;;;;;;;1999.90;999.90;;;3.20;99.90;;;;;;5012913;28;20169;-78
2022/02/11 21:14:14;;;;;;;1999.90;999.90;;;3.20;99.90;;;;;;5012178;28;20659;-79
2022/02/11 21:16:40;;;;;;;1999.90;999.90;;;3.20;99.90;;;;;;5012930;28;20180;-78
2022/02/11 21:19:06;;;;;;;1999.90;999.90;;;3.20;99.90;;;;;;5012655;28;20627;-78
2022/02/11 21:21:33;;;;;;;1999.90;999.90;;;3.20;99.90;;;;;;5012213;28;20534;-78
2022/02/11 21:23:59;;;;;;;1999.90;999.90;;;3.10;99.90;;;;;;5012384;28;20192;-79
2022/02/11 21:26:25;;;;;;;1999.90;999.90;;;3.10;99.90;;;;;;5012415;28;20173;-79
2022/02/11 21:28:51;;;;;;;1999.90;999.90;;;3.00;99.90;;;;;;5010566;28;20180;-78
2022/02/11 21:31:17;;;;;;;1999.90;999.90;;;2.90;99.90;;;;;;5012208;28;20650;-78
2022/02/11 21:33:43;;;;;;;1999.90;999.90;;;2.80;99.90;;;;;;5011447;28;20193;-78
2022/02/11 21:36:09;;;;;;;1999.90;999.90;;;2.80;99.90;;;;;;5012176;28;20208;-79
2022/02/11 21:38:34;;;;;;;1999.90;999.90;;;2.80;99.90;;;;;;5010319;28;20205;-78
2022/02/11 21:41:01;;;;;;;1999.90;999.90;;;2.80;99.90;;;;;;5012445;28;20251;-78
2022/02/11 21:47:14;;;;;;;1999.90;999.90;;;2.80;99.90;;;;;;5012982;28;20157;-78
2022/02/11 21:49:40;;;;;;;1999.90;999.90;;;2.80;99.90;;;;;;5010978;28;20736;-78
2022/02/11 21:52:13;;;;;;;1999.90;999.90;;;2.90;99.90;;;;;;5013321;28;20200;-77
2022/02/11 21:54:38;;;;;;;1999.90;999.90;;;2.90;99.90;;;;;;5015845;28;20195;-77
2022/02/11 21:57:06;;;;;;;1999.90;999.90;;;3.10;99.90;;;;;;5017040;28;20197;-77
2022/02/11 21:59:32;;;;;;;1999.90;999.90;;;2.90;99.90;;;;;;5014904;28;20581;-77
2022/02/11 22:01:58;;;;;;;1999.90;999.90;;;2.80;99.90;;;;;;5011784;28;20173;-76
2022/02/11 22:04:24;;;;;;;1999.90;999.90;;;2.60;99.90;;;;;;5011455;28;20424;-75
2022/02/11 22:06:52;;;;;;;1999.90;999.90;;;2.40;99.90;;;;;;5011517;28;20196;-76
2022/02/11 22:09:18;;;;;;;1999.90;999.90;;;2.40;99.90;;;;;;5011411;28;20173;-76
2022/02/11 22:11:43;;;;;;;1999.90;999.90;;;2.40;99.90;;;;;;5011743;28;20184;-76
2022/02/11 22:14:09;;;;;;;1999.90;999.90;;;2.30;99.90;;;;;;5010984;28;20964;-76
2022/02/11 22:16:36;;;;;;;1999.90;999.90;;;2.40;99.90;;;;;;5011683;28;20673;-76
2022/02/11 22:19:04;;;;;;;1999.90;999.90;;;2.30;99.90;;;;;;5011369;28;20177;-76
2022/02/11 22:21:30;;;;;;;1999.90;999.90;;;2.30;99.90;;;;;;5011540;28;20181;-77
2022/02/11 22:23:55;;;;;;;1999.90;999.90;;;2.20;99.90;;;;;;5011638;28;20276;-77
2022/02/11 22:26:21;;;;;;;1999.90;999.90;;;2.20;99.90;;;;;;5011674;28;20582;-77
2022/02/11 22:28:47;;;;;;;1999.90;999.90;;;2.10;99.90;;;;;;5011971;28;20223;-76
2022/02/11 22:31:13;;;;;;;1999.90;999.90;;;2.00;99.90;;;;;;5012190;28;20560;-76
2022/02/11 22:33:38;;;;;;;1999.90;999.90;;;2.00;99.90;;;;;;5012343;28;20585;-76
2022/02/11 22:36:05;;;;;;;1999.90;999.90;;;2.00;99.90;;;;;;5012257;28;20459;-76
2022/02/11 22:38:31;;;;;;;1999.90;999.90;;;1.90;99.90;;;;;;5012183;28;20235;-77
2022/02/11 22:40:58;;;;;;;1999.90;999.90;;;1.90;99.90;;;;;;5013327;28;20169;-76
2022/02/11 22:43:24;;;;;;;1999.90;999.90;;;1.80;99.90;;;;;;5014199;28;20188;-75
2022/02/11 22:45:50;;;;;;;1999.90;999.90;;;1.70;99.90;;;;;;5010890;28;20192;-77
2022/02/11 22:48:18;;;;;;;1999.90;999.90;;;1.70;99.90;;;;;;5012305;28;20165;-77
2022/02/11 22:53:29;;;;;;;1999.90;999.90;;;1.80;99.90;;;;;;5014379;28;20208;-78
2022/02/11 22:55:56;;;;;;;1999.90;999.90;;;1.70;99.90;;;;;;5014624;28;20181;-77
2022/02/11 22:58:22;;;;;;;1999.90;999.90;;;1.70;99.90;;;;;;5012868;28;20225;-78
2022/02/11 23:00:57;;;;;;;1999.90;999.90;;;1.70;99.90;;;;;;5012287;28;20180;-78
2022/02/11 23:03:26;;;;;;;1999.90;999.90;;;1.70;99.90;;;;;;5016008;28;20338;-77
2022/02/11 23:06:01;;;;;;;1999.90;999.90;;;1.60;99.90;;;;;;5015629;28;20170;-77
2022/02/11 23:11:24;;;;;;;1999.90;999.90;;;1.50;99.90;;;;;;5016013;28;20196;-77
2022/02/11 23:13:50;;;;;;;1999.90;999.90;;;1.50;99.90;;;;;;5015865;28;20204;-77
2022/02/11 23:16:18;;;;;;;1999.90;999.90;;;1.40;99.90;;;;;;5015463;28;20173;-78
2022/02/11 23:18:45;;;;;;;1999.90;999.90;;;1.40;99.90;;;;;;5015758;28;20761;-77
2022/02/11 23:21:11;;;;;;;1999.90;999.90;;;1.30;99.90;;;;;;5015687;28;20175;-77
2022/02/11 23:23:39;;;;;;;1999.90;999.90;;;1.30;99.90;;;;;;5015441;28;20243;-78
2022/02/11 23:26:06;;;;;;;1999.90;999.90;;;1.30;99.90;;;;;;5015290;28;20191;-77
2022/02/11 23:28:32;;;;;;;1999.90;999.90;;;1.30;99.90;;;;;;5021489;28;20168;-78
2022/02/11 23:30:58;;;;;;;1999.90;999.90;;;1.20;99.90;;;;;;5053219;22;20228;-78
2022/02/11 23:33:23;;;;;;;1999.90;999.90;;;1.20;99.90;;;;;;5025520;28;20169;-78
2022/02/11 23:35:50;;;;;;;1999.90;999.90;;;1.20;99.90;;;;;;5024892;28;20196;-78
2022/02/11 23:38:16;;;;;;;1999.90;999.90;;;1.20;99.90;;;;;;5025705;28;20669;-78
2022/02/11 23:41:22;;;;;;;1999.90;999.90;;;1.30;99.90;;;;;;5025837;28;20258;-78
2022/02/11 23:44:49;;;;;;;1999.90;999.90;;;1.30;99.90;;;;;;4966610;29;20183;-77
2022/02/11 23:50:48;;;;;;;1999.90;999.90;;;1.30;99.90;;;;;;4926455;29;20780;-79
2022/02/11 23:53:14;;;;;;;1999.90;999.90;;;1.30;99.90;;;;;;4988611;28;20197;-79
2022/02/11 23:55:40;;;;;;;1999.90;999.90;;;1.30;99.90;;;;;;4998347;28;20506;-79
2022/02/11 23:58:06;;;;;;;1999.90;999.90;;;1.20;99.90;;;;;;5016748;28;20451;-78
